Kezdőlap
METAR-TAF:

METAR-TAF

Repülőterek :

Koror, Babeldaob, Palau

földrajzi szélesség: 07-22N, földrajzi hosszúság: 134-32E, magasság: 54 m

Jelenlegi meteorológiai megfigyelések

A jelentés 34 perccel ezelõtt készült, 14:50 UTC
Kelet-északkeleti szél 7 kt széllökések: 13 kt
Hőmérséklet 27°C
Páratartalom 89%
Légköri nyomás 1011 hPa
Látótávolság: 22.5 km
Szórványos felhőzet 1600 lábon
Szakadozott felhőzet 29000 lábon

METAR: PTRO 251450Z 06007G13KT 14SM SCT016 BKN290 27/25 A2984

Idő: 00:24 (15:24 UTC)

Előrejelzés

A jelentés 4 órával és 0 perccel ezelõtt készült, 11:24 UTC
Az előrejelzés 25-én 12 óra UTC és 26-én 12 óra UTC között érvényes
Kelet-északkeleti szél 11 kt széllökések: 22 kt
Látótávolság: 10 km
Szórványos felhőzet 1600 lábon
Szakadozott felhőzet 13000 lábon
Záporok a közelben

TAF: PTRO 251124Z 2512/2612 07011G22KT P6SM VCSH SCT016 BKN130

Meteorológiai megfigyelések és előrejelzések több, mint 4000 repülőtéren (METAR és TAF jelentéseket).

A térképen piros és sárga pontok jelzik az elérhető meteorológiai állomásokat.

Mozgassa az egeret a pont fölött, hogy megjelenjen az állomás neve.

Azután kattintson az időjárási megfigyelések és előrejelzések megtekintéséhez.

A térkép megváltoztatása: kattintson a fekete keresztel jelölt zöld gombra ráközelítéshez, a vonallal jelölt zöld gombra távolításhoz, vagy a zöld nyilakra a szomszédos térképek eléréséhez.


METAR-TAF: